createdAt,value
2022-12-07T00:09:45.397Z,79
2022-12-07T00:19:53.795Z,79
2022-12-07T00:30:02.440Z,79
2022-12-07T00:40:11.369Z,79
2022-12-07T00:50:19.665Z,78
2022-12-07T01:00:27.818Z,78
2022-12-07T01:10:36.073Z,78
2022-12-07T01:20:44.276Z,78
2022-12-07T01:30:52.582Z,79
2022-12-07T01:41:00.507Z,78
2022-12-07T01:51:08.698Z,78
2022-12-07T02:01:17.021Z,79
2022-12-07T02:11:26.191Z,78
2022-12-07T02:21:25.569Z,79
2022-12-07T02:31:33.831Z,80
2022-12-07T02:41:42.782Z,80
2022-12-07T02:51:50.951Z,79
2022-12-07T03:02:00.294Z,78
2022-12-07T03:12:08.469Z,78
2022-12-07T03:22:16.968Z,78
2022-12-07T03:32:25.054Z,78
2022-12-07T03:42:33.393Z,79
2022-12-07T03:52:41.660Z,79
2022-12-07T04:02:49.875Z,79
2022-12-07T04:12:57.989Z,79
2022-12-07T04:23:06.100Z,80
2022-12-07T04:33:14.700Z,78
2022-12-07T04:43:22.604Z,76
2022-12-07T04:53:30.743Z,77
2022-12-07T05:03:38.864Z,78
2022-12-07T05:13:47.114Z,78
2022-12-07T05:23:55.174Z,77
2022-12-07T05:34:03.271Z,77
2022-12-07T05:44:11.353Z,77
2022-12-07T05:54:19.430Z,78
2022-12-07T06:04:27.642Z,78
2022-12-07T06:14:35.774Z,79
2022-12-07T06:24:43.916Z,80
2022-12-07T06:34:52.104Z,79
2022-12-07T06:45:00.248Z,79
2022-12-07T06:55:08.529Z,79
2022-12-07T07:05:16.950Z,79
2022-12-07T07:15:25.106Z,79
2022-12-07T07:25:33.097Z,79
2022-12-07T07:35:41.197Z,79
2022-12-07T07:45:50.458Z,78
2022-12-07T07:55:58.921Z,77
2022-12-07T08:06:07.565Z,75
2022-12-07T08:16:16.288Z,73
2022-12-07T08:26:24.256Z,74
2022-12-07T08:36:25.538Z,74
2022-12-07T08:46:33.874Z,72
2022-12-07T08:56:42.117Z,70
2022-12-07T09:06:50.258Z,69
2022-12-07T09:16:58.950Z,67
2022-12-07T09:27:07.496Z,68
2022-12-07T09:37:15.733Z,69
2022-12-07T09:47:24.006Z,69
2022-12-07T09:57:32.323Z,68
2022-12-07T10:07:40.500Z,68
2022-12-07T10:17:49.400Z,67
2022-12-07T10:27:57.687Z,67
2022-12-07T10:38:06.126Z,67
2022-12-07T10:48:14.369Z,66
2022-12-07T10:58:22.554Z,65
2022-12-07T11:08:30.866Z,61
2022-12-07T11:18:38.921Z,60
2022-12-07T11:28:48.161Z,60
2022-12-07T11:38:47.247Z,60
2022-12-07T11:48:55.516Z,60
2022-12-07T11:59:03.884Z,60
2022-12-07T12:09:39.610Z,60
2022-12-07T12:19:20.064Z,59
2022-12-07T12:29:30.650Z,60
2022-12-07T12:39:29.249Z,58
2022-12-07T12:49:37.888Z,58
2022-12-07T12:59:46.582Z,58
2022-12-07T13:09:55.189Z,58
2022-12-07T13:20:03.690Z,58
2022-12-07T13:30:11.069Z,58
2022-12-07T13:40:20.438Z,57
2022-12-07T13:50:28.604Z,57
2022-12-07T14:00:37.175Z,57
2022-12-07T14:10:45.945Z,57
2022-12-07T14:20:54.672Z,57
2022-12-07T14:31:03.287Z,58
2022-12-07T14:41:13.646Z,58
2022-12-07T15:01:25.170Z,62
2022-12-07T15:11:26.294Z,62
2022-12-07T15:21:36.145Z,63
2022-12-07T15:31:55.547Z,64
2022-12-07T15:41:52.047Z,65
2022-12-07T15:52:01.285Z,67
2022-12-07T16:02:10.552Z,68
2022-12-07T16:12:19.061Z,69
2022-12-07T16:22:29.167Z,71
2022-12-07T16:32:28.315Z,71
2022-12-07T16:42:37.467Z,71
2022-12-07T16:52:47.625Z,72
2022-12-07T17:02:56.070Z,72
2022-12-07T17:13:04.606Z,71
2022-12-07T17:23:13.191Z,71
2022-12-07T17:33:21.810Z,71
2022-12-07T17:43:30.208Z,72
2022-12-07T17:53:38.400Z,71
2022-12-07T18:03:46.612Z,72
2022-12-07T18:13:55.586Z,72
2022-12-07T18:24:05.083Z,72
2022-12-07T18:34:15.645Z,71
2022-12-07T18:44:15.248Z,72
2022-12-07T18:54:29.406Z,72
2022-12-07T19:04:33.075Z,72
2022-12-07T19:14:42.074Z,72
2022-12-07T19:24:39.801Z,72
2022-12-07T19:34:49.559Z,72
2022-12-07T19:45:04.982Z,72
2022-12-07T19:55:02.464Z,72
2022-12-07T20:05:09.592Z,73
2022-12-07T20:15:16.543Z,73
2022-12-07T20:25:24.654Z,73
2022-12-07T20:35:32.405Z,74
2022-12-07T20:45:41.619Z,74
2022-12-07T20:55:49.748Z,74
2022-12-07T21:05:57.942Z,73
2022-12-07T21:16:06.328Z,73
2022-12-07T21:26:15.722Z,73
2022-12-07T21:36:24.178Z,74
2022-12-07T21:46:34.667Z,74
2022-12-07T21:56:41.472Z,74
2022-12-07T22:06:50.974Z,73
2022-12-07T22:16:59.427Z,73
2022-12-07T22:27:08.051Z,74
2022-12-07T22:37:16.360Z,74
2022-12-07T22:47:24.912Z,74
2022-12-07T22:57:33.402Z,74
2022-12-07T23:07:41.961Z,74
2022-12-07T23:17:50.259Z,74
2022-12-07T23:27:58.953Z,74
2022-12-07T23:38:07.562Z,74
2022-12-07T23:48:16.838Z,73
2022-12-07T23:58:25.385Z,73
